createdAt,value
2023-07-03T00:01:13.742Z,100539.78
2023-07-03T00:04:05.802Z,100540.59
2023-07-03T00:06:57.742Z,100538.13
2023-07-03T00:09:43.306Z,100539.56
2023-07-03T00:12:35.748Z,100544.91
2023-07-03T00:15:26.728Z,100540.22
2023-07-03T00:18:11.761Z,100541.00
2023-07-03T00:21:04.738Z,100537.69
2023-07-03T00:23:49.460Z,100536.41
2023-07-03T00:26:40.740Z,100537.97
2023-07-03T00:29:25.629Z,100544.69
2023-07-03T00:32:16.760Z,100541.97
2023-07-03T00:35:01.853Z,100534.13
2023-07-03T00:37:52.759Z,100539.88
2023-07-03T00:40:43.800Z,100539.63
2023-07-03T00:43:48.743Z,100537.56
2023-07-03T00:46:33.672Z,100536.25
2023-07-03T00:49:27.867Z,100546.16
2023-07-03T00:52:13.729Z,100538.41
2023-07-03T00:55:05.755Z,100538.97
2023-07-03T00:57:51.584Z,100541.16
2023-07-03T01:00:52.739Z,100541.16
2023-07-03T01:03:46.554Z,100537.03
2023-07-03T01:06:47.746Z,100536.41
2023-07-03T01:09:49.036Z,100535.00
2023-07-03T01:12:45.757Z,100528.59
2023-07-03T01:15:40.739Z,100530.00
2023-07-03T01:18:26.503Z,100530.78
2023-07-03T01:21:30.748Z,100526.22
2023-07-03T01:24:28.244Z,100529.00
2023-07-03T01:27:22.792Z,100530.81
2023-07-03T01:30:11.989Z,100528.03
2023-07-03T01:33:04.818Z,100536.22
2023-07-03T01:35:52.060Z,100535.16
2023-07-03T01:38:43.792Z,100535.78
2023-07-03T01:41:36.815Z,100538.63
2023-07-03T01:44:34.767Z,100531.97
2023-07-03T01:47:21.323Z,100531.97
2023-07-03T01:50:17.778Z,100527.84
2023-07-03T01:53:11.462Z,100528.69
2023-07-03T01:56:22.785Z,100524.09
2023-07-03T01:59:16.763Z,100523.91
2023-07-03T02:02:12.738Z,100519.34
2023-07-03T02:05:11.761Z,100513.91
2023-07-03T02:08:07.757Z,100518.25
2023-07-03T02:10:54.452Z,100507.69
2023-07-03T02:13:45.762Z,100513.19
2023-07-03T02:16:30.812Z,100509.53
2023-07-03T02:19:23.761Z,100507.50
2023-07-03T02:22:08.751Z,100508.50
2023-07-03T02:25:00.764Z,100517.06
2023-07-03T02:27:46.060Z,100509.06
2023-07-03T02:30:37.802Z,100515.91
2023-07-03T02:33:22.759Z,100514.06
2023-07-03T02:36:14.779Z,100510.41
2023-07-03T02:38:59.965Z,100519.50
2023-07-03T02:41:51.780Z,100511.25
2023-07-03T02:44:37.015Z,100513.47
2023-07-03T02:47:28.935Z,100508.53
2023-07-03T02:50:14.131Z,100508.44
2023-07-03T02:53:05.786Z,100501.19
2023-07-03T02:55:57.787Z,100495.50
2023-07-03T02:58:43.017Z,100497.28
2023-07-03T03:01:35.792Z,100490.03
2023-07-03T03:04:20.574Z,100489.19
2023-07-03T03:07:11.795Z,100493.06
2023-07-03T03:09:56.809Z,100503.13
2023-07-03T03:12:47.764Z,100502.25
2023-07-03T03:15:38.202Z,100493.97
2023-07-03T03:18:29.785Z,100495.91
2023-07-03T03:21:22.854Z,100497.66
2023-07-03T03:24:07.844Z,100499.56
2023-07-03T03:26:58.811Z,100503.13
2023-07-03T03:29:49.789Z,100498.19
2023-07-03T03:32:40.791Z,100496.34
2023-07-03T03:35:25.580Z,100492.78
2023-07-03T03:38:16.794Z,100501.88
2023-07-03T03:41:10.863Z,100506.47
2023-07-03T03:44:08.791Z,100506.47
2023-07-03T03:47:00.808Z,100502.13
2023-07-03T03:49:45.690Z,100504.44
2023-07-03T03:52:36.815Z,100502.50
2023-07-03T03:55:21.883Z,100505.31
2023-07-03T03:58:13.791Z,100508.72
2023-07-03T04:00:58.650Z,100499.00
2023-07-03T04:03:49.817Z,100504.59
2023-07-03T04:06:45.806Z,100501.19
2023-07-03T04:09:30.762Z,100507.72
2023-07-03T04:12:21.828Z,100509.44
2023-07-03T04:15:07.829Z,100502.56
2023-07-03T04:18:06.858Z,100508.53
2023-07-03T04:21:06.117Z,100507.41
2023-07-03T04:24:04.799Z,100505.94
2023-07-03T04:26:49.692Z,100502.69
2023-07-03T04:29:40.803Z,100502.56
2023-07-03T04:32:26.220Z,100509.66
2023-07-03T04:35:17.810Z,100501.72
2023-07-03T04:38:03.124Z,100510.53
2023-07-03T04:40:54.803Z,100511.88
2023-07-03T04:43:49.129Z,100511.41
2023-07-03T04:46:40.878Z,100512.03
2023-07-03T04:49:33.805Z,100517.78
2023-07-03T04:52:20.706Z,100511.72
2023-07-03T04:55:14.814Z,100517.44
2023-07-03T04:58:06.820Z,100511.28
2023-07-03T05:00:58.838Z,100520.47
2023-07-03T05:03:43.744Z,100514.38
2023-07-03T05:06:35.816Z,100515.22
2023-07-03T05:09:29.877Z,100518.97
2023-07-03T05:12:21.828Z,100519.25
2023-07-03T05:15:10.510Z,100514.19
2023-07-03T05:18:02.951Z,100508.13
2023-07-03T05:20:49.991Z,100515.28
2023-07-03T05:23:41.854Z,100533.91
2023-07-03T05:26:26.689Z,100519.56
2023-07-03T05:29:17.986Z,100518.94
2023-07-03T05:32:03.705Z,100516.69
2023-07-03T05:34:54.827Z,100507.56
2023-07-03T05:37:46.855Z,100519.81
2023-07-03T05:40:51.905Z,100527.66
2023-07-03T05:43:42.853Z,100534.53
2023-07-03T05:46:34.881Z,100539.69
2023-07-03T05:49:26.833Z,100535.31
2023-07-03T05:52:18.839Z,100536.56
2023-07-03T05:55:12.826Z,100535.03
2023-07-03T05:58:04.844Z,100534.78
2023-07-03T06:00:50.223Z,100534.63
2023-07-03T06:03:41.880Z,100536.53
2023-07-03T06:06:27.128Z,100534.22
2023-07-03T06:09:18.856Z,100548.28
2023-07-03T06:12:05.005Z,100544.34
2023-07-03T06:14:56.830Z,100541.25
2023-07-03T06:17:43.287Z,100536.41
2023-07-03T06:20:34.833Z,100545.53
2023-07-03T06:23:25.869Z,100549.88
2023-07-03T06:26:18.877Z,100550.41
2023-07-03T06:29:03.888Z,100555.38
2023-07-03T06:31:56.850Z,100558.47
2023-07-03T06:34:47.882Z,100557.00
2023-07-03T06:37:32.890Z,100549.59
2023-07-03T06:40:25.843Z,100552.69
2023-07-03T06:43:17.038Z,100559.13
2023-07-03T06:46:08.946Z,100558.50
2023-07-03T06:48:56.409Z,100561.19
2023-07-03T06:51:48.896Z,100561.38
2023-07-03T06:54:33.951Z,100562.03
2023-07-03T06:57:24.862Z,100563.47
2023-07-03T07:00:10.844Z,100559.13
2023-07-03T07:03:02.970Z,100563.25
2023-07-03T07:05:48.533Z,100558.47
2023-07-03T07:08:39.872Z,100554.53
2023-07-03T07:11:30.073Z,100558.22
2023-07-03T07:14:21.874Z,100554.44
2023-07-03T07:17:07.030Z,100551.97
2023-07-03T07:19:59.207Z,100566.50
2023-07-03T07:22:44.311Z,100568.63
2023-07-03T07:25:35.857Z,100566.28
2023-07-03T07:28:27.883Z,100567.66
2023-07-03T07:31:22.366Z,100559.25
2023-07-03T07:34:15.887Z,100558.38
2023-07-03T07:37:07.877Z,100566.84
2023-07-03T07:39:58.861Z,100567.78
2023-07-03T07:42:49.908Z,100568.75
2023-07-03T07:45:40.912Z,100565.50
2023-07-03T07:48:28.822Z,100567.16
2023-07-03T07:51:21.867Z,100562.28
2023-07-03T07:54:06.914Z,100560.25
2023-07-03T07:56:58.930Z,100562.56
2023-07-03T07:59:43.740Z,100556.81
2023-07-03T08:02:35.032Z,100551.38
2023-07-03T08:05:21.107Z,100555.66
2023-07-03T08:08:12.909Z,100560.44
2023-07-03T08:11:01.105Z,100561.91
2023-07-03T08:13:52.939Z,100557.22
2023-07-03T08:16:38.103Z,100568.50
2023-07-03T08:19:29.901Z,100561.91
2023-07-03T08:22:21.891Z,100559.91
2023-07-03T08:25:07.783Z,100556.84
2023-07-03T08:27:58.980Z,100561.56
2023-07-03T08:30:43.978Z,100564.19
2023-07-03T08:33:36.000Z,100548.63
2023-07-03T08:39:15.912Z,100554.56
2023-07-03T08:42:27.922Z,100564.72
2023-07-03T08:45:22.882Z,100570.84
2023-07-03T08:48:13.474Z,100562.38
2023-07-03T08:51:09.903Z,100580.38
2023-07-03T08:54:05.832Z,100577.47
2023-07-03T08:56:57.890Z,100565.75
2023-07-03T08:59:43.071Z,100562.81
2023-07-03T09:02:45.033Z,100569.13
2023-07-03T09:05:59.495Z,100576.63
2023-07-03T09:09:04.943Z,100581.63
2023-07-03T09:12:26.925Z,100583.06
2023-07-03T09:15:32.914Z,100574.09
2023-07-03T09:18:21.529Z,100581.75
2023-07-03T09:21:13.928Z,100571.78
2023-07-03T09:24:45.924Z,100581.78
2023-07-03T09:27:31.112Z,100593.53
2023-07-03T09:30:22.914Z,100585.63
2023-07-03T09:33:08.091Z,100588.09
2023-07-03T09:36:00.914Z,100583.84
2023-07-03T09:38:46.081Z,100588.44
2023-07-03T09:41:41.955Z,100591.91
2023-07-03T09:44:33.167Z,100584.44
2023-07-03T09:47:30.096Z,100591.97
2023-07-03T09:50:16.594Z,100609.44
2023-07-03T09:53:10.294Z,100606.66
2023-07-03T09:55:58.799Z,100610.97
2023-07-03T09:58:55.928Z,100609.09
2023-07-03T10:07:41.018Z,100605.03
2023-07-03T10:13:38.034Z,100593.28
2023-07-03T10:16:26.521Z,100589.13
2023-07-03T10:19:18.004Z,100581.06
2023-07-03T10:22:05.877Z,100573.16
2023-07-03T10:24:57.964Z,100576.34
2023-07-03T10:27:43.296Z,100577.41
2023-07-03T10:30:39.954Z,100565.38
2023-07-03T10:33:43.002Z,100576.28
2023-07-03T10:36:38.964Z,100595.44
2023-07-03T10:39:48.943Z,100594.56
2023-07-03T10:42:53.972Z,100587.28
2023-07-03T10:45:53.151Z,100581.00
2023-07-03T10:48:44.948Z,100563.00
2023-07-03T10:51:48.008Z,100575.97
2023-07-03T10:54:44.938Z,100570.13
2023-07-03T10:57:55.962Z,100565.41
2023-07-03T11:00:55.001Z,100567.34
2023-07-03T11:04:22.713Z,100569.63
2023-07-03T11:07:41.988Z,100576.03
2023-07-03T11:10:49.189Z,100581.84
2023-07-03T11:13:49.145Z,100569.66
2023-07-03T11:16:45.652Z,100574.53
2023-07-03T11:28:45.074Z,100572.72
2023-07-03T11:31:38.013Z,100575.66
2023-07-03T11:41:06.036Z,100572.81
2023-07-03T11:44:03.984Z,100572.50
2023-07-03T11:46:59.989Z,100579.91
2023-07-03T11:49:49.480Z,100574.16
2023-07-03T11:52:43.978Z,100578.41
2023-07-03T11:55:43.997Z,100571.72
2023-07-03T11:58:37.997Z,100578.56
2023-07-03T12:01:33.130Z,100580.53
2023-07-03T12:04:51.021Z,100569.13
2023-07-03T12:07:35.982Z,100584.44
2023-07-03T12:10:27.007Z,100581.31
2023-07-03T12:13:38.238Z,100580.78
2023-07-03T12:16:40.009Z,100567.91
2023-07-03T12:19:31.522Z,100586.59
2023-07-03T12:22:27.024Z,100603.00
2023-07-03T12:25:32.026Z,100584.69
2023-07-03T12:28:25.000Z,100586.81
2023-07-03T12:31:27.047Z,100599.47
2023-07-03T12:34:12.194Z,100591.75
2023-07-03T12:37:11.008Z,100584.59
2023-07-03T12:39:55.910Z,100585.13
2023-07-03T12:43:00.013Z,100589.75
2023-07-03T12:45:51.932Z,100584.75
2023-07-03T12:48:44.028Z,100571.47
2023-07-03T12:51:28.948Z,100584.16
2023-07-03T12:54:20.061Z,100592.75
2023-07-03T12:57:07.086Z,100599.38
2023-07-03T13:00:00.009Z,100594.91
2023-07-03T13:02:52.046Z,100577.66
2023-07-03T13:05:37.334Z,100585.03
2023-07-03T13:08:29.029Z,100565.84
2023-07-03T13:11:21.024Z,100569.63
2023-07-03T13:14:18.016Z,100573.97
2023-07-03T13:17:04.563Z,100582.63
2023-07-03T13:19:56.016Z,100579.69
2023-07-03T13:23:12.012Z,100568.19
2023-07-03T13:25:58.150Z,100567.16
2023-07-03T13:29:03.039Z,100568.06
2023-07-03T13:31:52.803Z,100568.25
2023-07-03T13:35:08.008Z,100564.25
2023-07-03T13:37:53.138Z,100551.44
2023-07-03T13:40:45.139Z,100552.75
2023-07-03T13:43:46.123Z,100548.91
2023-07-03T13:46:31.112Z,100554.69
2023-07-03T13:49:24.022Z,100551.81
2023-07-03T13:52:09.213Z,100551.56
2023-07-03T13:55:01.025Z,100548.25
2023-07-03T13:57:45.881Z,100551.44
2023-07-03T14:00:37.046Z,100549.84
2023-07-03T14:03:28.106Z,100545.22
2023-07-03T14:06:13.919Z,100543.28
2023-07-03T14:09:06.045Z,100549.50
2023-07-03T14:11:57.070Z,100534.91
2023-07-03T14:14:42.048Z,100530.09
2023-07-03T14:17:33.129Z,100524.00
2023-07-03T14:20:18.347Z,100535.63
2023-07-03T14:23:11.034Z,100526.94
2023-07-03T14:25:59.944Z,100529.72
2023-07-03T14:28:53.032Z,100518.22
2023-07-03T14:31:45.091Z,100519.91
2023-07-03T14:34:29.905Z,100522.69
2023-07-03T14:37:21.079Z,100518.72
2023-07-03T14:40:06.622Z,100526.09
2023-07-03T14:43:05.061Z,100519.38
2023-07-03T14:45:50.261Z,100520.03
2023-07-03T14:48:42.343Z,100521.03
2023-07-03T14:51:34.074Z,100527.78
2023-07-03T14:54:25.079Z,100503.56
2023-07-03T14:57:16.063Z,100510.69
2023-07-03T15:00:01.026Z,100510.16
2023-07-03T15:02:56.251Z,100497.41
2023-07-03T15:05:41.613Z,100492.50
2023-07-03T15:08:33.054Z,100485.44
2023-07-03T15:11:18.988Z,100477.06
2023-07-03T15:14:14.071Z,100483.47
2023-07-03T15:16:59.280Z,100484.41
2023-07-03T15:19:51.056Z,100484.91
2023-07-03T15:22:36.369Z,100483.91
2023-07-03T15:25:28.075Z,100478.84
2023-07-03T15:28:20.065Z,100474.97
2023-07-03T15:31:12.115Z,100471.31
2023-07-03T15:33:57.061Z,100483.13
2023-07-03T15:36:49.068Z,100478.63
2023-07-03T15:39:34.005Z,100474.31
2023-07-03T15:42:25.083Z,100465.41
2023-07-03T15:45:17.280Z,100462.31
2023-07-03T15:48:09.086Z,100461.94
2023-07-03T15:50:58.138Z,100457.84
2023-07-03T15:53:50.099Z,100464.94
2023-07-03T15:56:42.085Z,100455.69
2023-07-03T15:59:27.505Z,100457.72
2023-07-03T16:02:19.103Z,100459.72
2023-07-03T16:05:11.096Z,100464.59
2023-07-03T16:08:02.101Z,100457.06
2023-07-03T16:10:47.104Z,100462.59
2023-07-03T16:13:40.114Z,100450.94
2023-07-03T16:16:26.448Z,100463.53
2023-07-03T16:19:21.857Z,100459.09
2023-07-03T16:22:07.956Z,100454.19
2023-07-03T16:24:59.088Z,100449.75
2023-07-03T16:27:50.109Z,100459.78
2023-07-03T16:30:41.154Z,100459.19
2023-07-03T16:33:26.685Z,100444.88
2023-07-03T16:36:24.106Z,100447.00
2023-07-03T16:39:09.962Z,100444.94
2023-07-03T16:42:01.109Z,100449.38
2023-07-03T16:44:46.677Z,100455.97
2023-07-03T16:47:38.115Z,100451.06
2023-07-03T16:50:22.954Z,100454.38
2023-07-03T16:53:15.286Z,100449.63
2023-07-03T16:56:11.402Z,100448.41
2023-07-03T16:59:05.093Z,100449.81
2023-07-03T17:01:49.861Z,100449.00
2023-07-03T17:04:41.130Z,100445.41
2023-07-03T17:07:26.408Z,100443.94
2023-07-03T17:10:18.107Z,100443.84
2023-07-03T17:13:05.061Z,100447.94
2023-07-03T17:15:57.172Z,100448.13
2023-07-03T17:18:42.036Z,100436.97
2023-07-03T17:21:34.253Z,100445.06
2023-07-03T17:24:19.435Z,100444.81
2023-07-03T17:27:11.384Z,100439.16
2023-07-03T17:29:56.401Z,100433.31
2023-07-03T17:32:49.166Z,100431.00
2023-07-03T17:35:42.118Z,100425.63
2023-07-03T17:38:34.111Z,100420.34
2023-07-03T17:41:26.128Z,100423.03
2023-07-03T17:44:17.754Z,100420.59
2023-07-03T17:47:09.133Z,100429.56
2023-07-03T17:50:00.164Z,100422.03
2023-07-03T17:52:46.352Z,100422.97
2023-07-03T17:55:39.136Z,100423.13
2023-07-03T17:58:24.191Z,100419.66
2023-07-03T18:01:16.152Z,100416.84
2023-07-03T18:04:01.556Z,100423.63
2023-07-03T18:06:53.129Z,100422.97
2023-07-03T18:09:38.150Z,100418.84
2023-07-03T18:12:29.137Z,100421.69
2023-07-03T18:15:14.845Z,100417.59
2023-07-03T18:18:06.132Z,100420.16
2023-07-03T18:20:50.937Z,100416.06
2023-07-03T18:23:42.135Z,100419.22
2023-07-03T18:26:26.779Z,100420.97
2023-07-03T18:29:18.140Z,100418.19
2023-07-03T18:32:03.469Z,100415.69
2023-07-03T18:34:55.143Z,100419.56
2023-07-03T18:37:39.862Z,100428.13
2023-07-03T18:40:31.161Z,100420.66
2023-07-03T18:43:22.285Z,100427.53
2023-07-03T18:46:22.226Z,100426.38
2023-07-03T18:49:06.944Z,100430.81
2023-07-03T18:51:59.164Z,100428.22
2023-07-03T18:54:44.772Z,100438.63
2023-07-03T18:57:36.218Z,100437.94
2023-07-03T19:00:21.911Z,100428.34
2023-07-03T19:03:13.158Z,100431.09
2023-07-03T19:06:06.162Z,100431.09
2023-07-03T19:08:58.160Z,100432.66
2023-07-03T19:11:51.181Z,100436.66
2023-07-03T19:14:43.163Z,100433.41
2023-07-03T19:17:30.242Z,100426.09
2023-07-03T19:20:25.161Z,100432.97
2023-07-03T19:23:10.024Z,100432.16
2023-07-03T19:26:03.205Z,100436.13
2023-07-03T19:28:57.154Z,100436.69
2023-07-03T19:31:49.207Z,100448.34
2023-07-03T19:34:36.296Z,100449.19
2023-07-03T19:37:28.169Z,100449.69
2023-07-03T19:40:19.312Z,100455.78
2023-07-03T19:43:11.180Z,100453.53
2023-07-03T19:46:10.181Z,100450.69
2023-07-03T19:48:58.263Z,100454.53
2023-07-03T19:51:50.190Z,100461.38
2023-07-03T19:54:35.220Z,100458.69
2023-07-03T19:57:28.186Z,100464.06
2023-07-03T20:00:14.063Z,100462.47
2023-07-03T20:03:06.243Z,100460.91
2023-07-03T20:05:58.165Z,100469.88
2023-07-03T20:08:43.190Z,100477.78
2023-07-03T20:11:34.199Z,100480.53
2023-07-03T20:14:19.818Z,100479.34
2023-07-03T20:17:11.216Z,100484.91
2023-07-03T20:19:56.197Z,100490.38
2023-07-03T20:22:50.192Z,100492.66
2023-07-03T20:25:35.045Z,100491.25
2023-07-03T20:28:26.179Z,100499.75
2023-07-03T20:31:20.222Z,100503.53
2023-07-03T20:34:05.377Z,100505.34
2023-07-03T20:36:57.200Z,100497.50
2023-07-03T20:39:41.909Z,100501.88
2023-07-03T20:42:34.203Z,100504.47
2023-07-03T20:45:19.223Z,100503.22
2023-07-03T20:48:11.206Z,100510.03
2023-07-03T20:50:59.529Z,100515.22
2023-07-03T20:54:01.174Z,100513.13
2023-07-03T20:56:47.157Z,100520.34
2023-07-03T20:59:41.191Z,100524.53
2023-07-03T21:02:33.230Z,100534.47
2023-07-03T21:05:18.463Z,100542.75
2023-07-03T21:08:11.782Z,100537.81
2023-07-03T21:10:58.575Z,100540.75
2023-07-03T21:13:51.347Z,100542.69
2023-07-03T21:16:37.100Z,100541.69
2023-07-03T21:19:28.185Z,100550.41
2023-07-03T21:22:12.850Z,100549.00
2023-07-03T21:25:04.567Z,100553.75
2023-07-03T21:27:56.219Z,100552.97
2023-07-03T21:30:44.072Z,100560.81
2023-07-03T21:33:39.228Z,100558.78
2023-07-03T21:36:26.412Z,100565.81
2023-07-03T21:39:18.193Z,100562.34
2023-07-03T21:42:03.378Z,100570.63
2023-07-03T21:45:01.217Z,100568.34
2023-07-03T21:47:49.503Z,100566.50
2023-07-03T21:50:41.225Z,100561.13
2023-07-03T21:53:27.051Z,100563.59
2023-07-03T21:56:21.216Z,100563.59
2023-07-03T21:59:06.416Z,100566.91
2023-07-03T22:01:58.306Z,100557.84
2023-07-03T22:04:43.727Z,100569.19
2023-07-03T22:07:35.236Z,100559.69
2023-07-03T22:10:20.046Z,100565.25
2023-07-03T22:13:12.244Z,100561.16
2023-07-03T22:15:57.114Z,100557.44
2023-07-03T22:18:48.220Z,100561.97
2023-07-03T22:21:33.113Z,100571.47
2023-07-03T22:24:24.221Z,100554.16
2023-07-03T22:27:09.382Z,100571.28
2023-07-03T22:30:01.231Z,100572.09
2023-07-03T22:32:52.289Z,100575.19
2023-07-03T22:35:36.908Z,100574.78
2023-07-03T22:38:28.211Z,100572.72
2023-07-03T22:41:20.225Z,100583.00
2023-07-03T22:44:19.215Z,100580.97
2023-07-03T22:47:10.602Z,100570.03
2023-07-03T22:50:02.254Z,100590.84
2023-07-03T22:52:57.239Z,100587.09
2023-07-03T22:55:42.391Z,100591.16
2023-07-03T22:58:34.283Z,100594.44
2023-07-03T23:01:19.554Z,100600.00
2023-07-03T23:04:12.253Z,100597.75
2023-07-03T23:06:57.640Z,100597.75
2023-07-03T23:09:49.240Z,100599.19
2023-07-03T23:12:34.633Z,100594.25
2023-07-03T23:15:26.238Z,100597.13
2023-07-03T23:18:11.006Z,100593.03
2023-07-03T23:21:08.357Z,100603.75
2023-07-03T23:24:03.234Z,100601.47
2023-07-03T23:26:56.260Z,100601.28
2023-07-03T23:29:41.611Z,100605.63
2023-07-03T23:32:33.309Z,100600.91
2023-07-03T23:35:18.334Z,100601.13
2023-07-03T23:38:10.258Z,100602.97
2023-07-03T23:40:55.449Z,100610.78
2023-07-03T23:43:47.265Z,100615.25
2023-07-03T23:46:38.662Z,100615.03
2023-07-03T23:49:31.262Z,100620.94
2023-07-03T23:52:16.542Z,100613.72
2023-07-03T23:55:08.253Z,100610.88
2023-07-03T23:57:59.261Z,100613.94
